sensor_id;sensor_type;location;lat;lon;timestamp;temperature;humidity
580;DHT22;276;48.392;9.950;2023-06-19T00:00:29;22.90;87.80
580;DHT22;276;48.392;9.950;2023-06-19T00:02:56;22.80;87.90
580;DHT22;276;48.392;9.950;2023-06-19T00:05:24;22.80;88.20
580;DHT22;276;48.392;9.950;2023-06-19T00:07:50;22.80;88.30
580;DHT22;276;48.392;9.950;2023-06-19T00:10:17;22.70;88.10
580;DHT22;276;48.392;9.950;2023-06-19T00:12:42;22.70;88.20
580;DHT22;276;48.392;9.950;2023-06-19T00:15:08;22.60;88.10
580;DHT22;276;48.392;9.950;2023-06-19T00:17:37;22.60;88.00
580;DHT22;276;48.392;9.950;2023-06-19T00:20:04;22.60;88.70
580;DHT22;276;48.392;9.950;2023-06-19T00:22:31;22.50;88.10
580;DHT22;276;48.392;9.950;2023-06-19T00:24:57;22.50;88.10
580;DHT22;276;48.392;9.950;2023-06-19T00:27:22;22.50;88.40
580;DHT22;276;48.392;9.950;2023-06-19T00:29:51;22.50;88.20
580;DHT22;276;48.392;9.950;2023-06-19T00:32:16;22.50;88.00
580;DHT22;276;48.392;9.950;2023-06-19T00:34:42;22.50;87.70
580;DHT22;276;48.392;9.950;2023-06-19T00:37:10;22.40;87.90
580;DHT22;276;48.392;9.950;2023-06-19T00:39:39;22.40;87.10
580;DHT22;276;48.392;9.950;2023-06-19T00:42:07;22.40;87.00
580;DHT22;276;48.392;9.950;2023-06-19T00:44:35;22.40;87.00
580;DHT22;276;48.392;9.950;2023-06-19T00:47:02;22.40;87.00
580;DHT22;276;48.392;9.950;2023-06-19T00:49:30;22.40;87.70
580;DHT22;276;48.392;9.950;2023-06-19T00:51:58;22.40;87.00
580;DHT22;276;48.392;9.950;2023-06-19T00:54:26;22.40;87.00
580;DHT22;276;48.392;9.950;2023-06-19T00:56:54;22.40;87.00
580;DHT22;276;48.392;9.950;2023-06-19T00:59:22;22.40;87.20
580;DHT22;276;48.392;9.950;2023-06-19T01:01:52;22.40;87.40
580;DHT22;276;48.392;9.950;2023-06-19T01:04:18;22.40;87.50
580;DHT22;276;48.392;9.950;2023-06-19T01:06:53;22.40;87.80
580;DHT22;276;48.392;9.950;2023-06-19T01:09:28;22.40;88.10
580;DHT22;276;48.392;9.950;2023-06-19T01:12:09;22.40;88.20
580;DHT22;276;48.392;9.950;2023-06-19T01:15:04;22.40;88.20
580;DHT22;276;48.392;9.950;2023-06-19T01:17:33;22.40;88.40
580;DHT22;276;48.392;9.950;2023-06-19T01:20:00;22.40;88.40
580;DHT22;276;48.392;9.950;2023-06-19T01:22:31;22.40;88.50
580;DHT22;276;48.392;9.950;2023-06-19T01:24:59;22.40;88.50
580;DHT22;276;48.392;9.950;2023-06-19T01:27:27;22.40;88.50
580;DHT22;276;48.392;9.950;2023-06-19T01:29:59;22.50;88.60
580;DHT22;276;48.392;9.950;2023-06-19T01:32:53;22.40;88.40
580;DHT22;276;48.392;9.950;2023-06-19T01:35:19;22.50;88.50
580;DHT22;276;48.392;9.950;2023-06-19T01:37:49;22.50;88.40
580;DHT22;276;48.392;9.950;2023-06-19T01:40:16;22.50;88.50
580;DHT22;276;48.392;9.950;2023-06-19T01:42:45;22.50;88.60
580;DHT22;276;48.392;9.950;2023-06-19T01:45:11;22.50;88.50
580;DHT22;276;48.392;9.950;2023-06-19T01:47:36;22.50;88.60
580;DHT22;276;48.392;9.950;2023-06-19T01:50:05;22.50;88.70
580;DHT22;276;48.392;9.950;2023-06-19T01:52:31;22.40;88.70
580;DHT22;276;48.392;9.950;2023-06-19T01:54:57;22.50;88.90
580;DHT22;276;48.392;9.950;2023-06-19T01:57:25;22.40;88.90
580;DHT22;276;48.392;9.950;2023-06-19T01:59:51;22.40;89.00
580;DHT22;276;48.392;9.950;2023-06-19T02:02:16;22.40;89.10
580;DHT22;276;48.392;9.950;2023-06-19T02:04:44;22.40;89.20
580;DHT22;276;48.392;9.950;2023-06-19T02:07:12;22.40;89.10
580;DHT22;276;48.392;9.950;2023-06-19T02:09:38;22.40;89.10
580;DHT22;276;48.392;9.950;2023-06-19T02:12:05;22.40;89.30
580;DHT22;276;48.392;9.950;2023-06-19T02:14:35;22.40;89.30
580;DHT22;276;48.392;9.950;2023-06-19T02:17:01;22.30;89.40
580;DHT22;276;48.392;9.950;2023-06-19T02:19:26;22.30;89.60
580;DHT22;276;48.392;9.950;2023-06-19T02:21:52;22.30;89.80
580;DHT22;276;48.392;9.950;2023-06-19T02:24:17;22.30;90.00
580;DHT22;276;48.392;9.950;2023-06-19T02:26:43;22.30;90.10
580;DHT22;276;48.392;9.950;2023-06-19T02:29:09;22.30;90.10
580;DHT22;276;48.392;9.950;2023-06-19T02:31:35;22.20;90.00
580;DHT22;276;48.392;9.950;2023-06-19T02:34:00;22.20;90.00
580;DHT22;276;48.392;9.950;2023-06-19T02:36:26;22.20;89.90
580;DHT22;276;48.392;9.950;2023-06-19T02:38:52;22.20;89.70
580;DHT22;276;48.392;9.950;2023-06-19T02:41:18;22.20;89.60
580;DHT22;276;48.392;9.950;2023-06-19T02:43:45;22.20;89.50
580;DHT22;276;48.392;9.950;2023-06-19T02:46:16;22.10;89.40
580;DHT22;276;48.392;9.950;2023-06-19T02:48:45;22.10;89.40
580;DHT22;276;48.392;9.950;2023-06-19T02:51:10;22.10;89.50
580;DHT22;276;48.392;9.950;2023-06-19T02:53:36;22.10;89.60
580;DHT22;276;48.392;9.950;2023-06-19T02:56:02;22.10;89.70
580;DHT22;276;48.392;9.950;2023-06-19T02:58:30;22.20;89.80
580;DHT22;276;48.392;9.950;2023-06-19T03:00:55;22.20;89.30
580;DHT22;276;48.392;9.950;2023-06-19T03:03:21;22.20;89.20
580;DHT22;276;48.392;9.950;2023-06-19T03:05:51;22.10;89.00
580;DHT22;276;48.392;9.950;2023-06-19T03:08:17;22.10;89.60
580;DHT22;276;48.392;9.950;2023-06-19T03:10:45;22.10;88.70
580;DHT22;276;48.392;9.950;2023-06-19T03:13:15;22.10;88.80
580;DHT22;276;48.392;9.950;2023-06-19T03:15:40;22.10;89.00
580;DHT22;276;48.392;9.950;2023-06-19T03:18:06;22.10;89.20
580;DHT22;276;48.392;9.950;2023-06-19T03:20:33;22.10;89.00
580;DHT22;276;48.392;9.950;2023-06-19T03:23:01;22.10;89.10
580;DHT22;276;48.392;9.950;2023-06-19T03:25:27;22.20;89.30
580;DHT22;276;48.392;9.950;2023-06-19T03:28:01;22.20;89.30
580;DHT22;276;48.392;9.950;2023-06-19T03:30:28;22.20;89.10
580;DHT22;276;48.392;9.950;2023-06-19T03:32:53;22.20;88.90
580;DHT22;276;48.392;9.950;2023-06-19T03:35:21;22.30;88.70
580;DHT22;276;48.392;9.950;2023-06-19T03:37:49;22.30;88.40
580;DHT22;276;48.392;9.950;2023-06-19T03:40:15;22.30;88.20
580;DHT22;276;48.392;9.950;2023-06-19T03:42:43;22.30;88.40
580;DHT22;276;48.392;9.950;2023-06-19T03:45:09;22.30;88.60
580;DHT22;276;48.392;9.950;2023-06-19T03:47:34;22.30;88.80
580;DHT22;276;48.392;9.950;2023-06-19T03:50:00;22.30;89.10
580;DHT22;276;48.392;9.950;2023-06-19T03:52:25;22.40;89.20
580;DHT22;276;48.392;9.950;2023-06-19T03:54:51;22.40;89.20
580;DHT22;276;48.392;9.950;2023-06-19T03:57:17;22.40;89.10
580;DHT22;276;48.392;9.950;2023-06-19T03:59:42;22.40;89.20
580;DHT22;276;48.392;9.950;2023-06-19T04:02:08;22.40;89.20
580;DHT22;276;48.392;9.950;2023-06-19T04:04:33;22.40;89.30
580;DHT22;276;48.392;9.950;2023-06-19T04:07:01;22.50;89.50
580;DHT22;276;48.392;9.950;2023-06-19T04:09:27;22.50;89.60
580;DHT22;276;48.392;9.950;2023-06-19T04:11:52;22.50;89.80
580;DHT22;276;48.392;9.950;2023-06-19T04:14:18;22.50;89.80
580;DHT22;276;48.392;9.950;2023-06-19T04:16:50;22.50;89.50
580;DHT22;276;48.392;9.950;2023-06-19T04:19:19;22.60;89.30
580;DHT22;276;48.392;9.950;2023-06-19T04:21:44;22.60;89.20
580;DHT22;276;48.392;9.950;2023-06-19T04:24:10;22.60;89.30
580;DHT22;276;48.392;9.950;2023-06-19T04:26:36;22.60;89.30
580;DHT22;276;48.392;9.950;2023-06-19T04:29:04;22.60;89.50
580;DHT22;276;48.392;9.950;2023-06-19T04:31:32;22.50;89.50
580;DHT22;276;48.392;9.950;2023-06-19T04:33:57;22.50;89.50
580;DHT22;276;48.392;9.950;2023-06-19T04:36:25;22.70;89.70
580;DHT22;276;48.392;9.950;2023-06-19T04:38:53;22.70;89.50
580;DHT22;276;48.392;9.950;2023-06-19T04:41:19;22.80;89.40
580;DHT22;276;48.392;9.950;2023-06-19T04:43:45;22.80;89.30
580;DHT22;276;48.392;9.950;2023-06-19T04:46:13;22.90;89.30
580;DHT22;276;48.392;9.950;2023-06-19T04:48:38;22.80;89.50
580;DHT22;276;48.392;9.950;2023-06-19T04:51:05;22.80;89.60
580;DHT22;276;48.392;9.950;2023-06-19T04:53:33;22.80;89.90
580;DHT22;276;48.392;9.950;2023-06-19T04:55:58;22.80;89.90
580;DHT22;276;48.392;9.950;2023-06-19T04:58:24;22.80;90.00
580;DHT22;276;48.392;9.950;2023-06-19T05:00:50;22.80;90.10
580;DHT22;276;48.392;9.950;2023-06-19T05:03:19;22.80;90.20
580;DHT22;276;48.392;9.950;2023-06-19T05:05:49;22.80;90.40
580;DHT22;276;48.392;9.950;2023-06-19T05:08:17;22.80;90.40
580;DHT22;276;48.392;9.950;2023-06-19T05:10:43;22.80;90.30
580;DHT22;276;48.392;9.950;2023-06-19T05:13:08;22.80;90.20
580;DHT22;276;48.392;9.950;2023-06-19T05:15:34;22.80;90.30
580;DHT22;276;48.392;9.950;2023-06-19T05:17:59;22.80;90.40
580;DHT22;276;48.392;9.950;2023-06-19T05:20:25;22.80;90.80
580;DHT22;276;48.392;9.950;2023-06-19T05:22:51;22.80;90.60
580;DHT22;276;48.392;9.950;2023-06-19T05:25:16;22.70;90.70
580;DHT22;276;48.392;9.950;2023-06-19T05:27:42;22.70;90.80
580;DHT22;276;48.392;9.950;2023-06-19T05:30:08;22.70;90.90
580;DHT22;276;48.392;9.950;2023-06-19T05:32:34;22.70;91.00
580;DHT22;276;48.392;9.950;2023-06-19T05:35:02;22.70;91.10
580;DHT22;276;48.392;9.950;2023-06-19T05:37:27;22.70;91.10
580;DHT22;276;48.392;9.950;2023-06-19T05:39:55;22.60;91.00
580;DHT22;276;48.392;9.950;2023-06-19T05:42:22;22.70;91.10
580;DHT22;276;48.392;9.950;2023-06-19T05:44:50;22.70;91.20
580;DHT22;276;48.392;9.950;2023-06-19T05:47:16;22.70;91.10
580;DHT22;276;48.392;9.950;2023-06-19T05:49:46;22.80;91.20
580;DHT22;276;48.392;9.950;2023-06-19T05:52:12;22.80;91.10
580;DHT22;276;48.392;9.950;2023-06-19T05:54:40;22.90;91.20
580;DHT22;276;48.392;9.950;2023-06-19T05:57:06;22.90;91.20
580;DHT22;276;48.392;9.950;2023-06-19T05:59:31;22.90;91.30
580;DHT22;276;48.392;9.950;2023-06-19T06:01:59;22.90;91.40
580;DHT22;276;48.392;9.950;2023-06-19T06:04:25;22.90;91.50
580;DHT22;276;48.392;9.950;2023-06-19T06:06:55;22.90;91.50
580;DHT22;276;48.392;9.950;2023-06-19T06:09:23;22.90;91.60
580;DHT22;276;48.392;9.950;2023-06-19T06:11:49;22.80;91.70
580;DHT22;276;48.392;9.950;2023-06-19T06:14:20;22.80;91.70
580;DHT22;276;48.392;9.950;2023-06-19T06:16:45;22.80;91.80
580;DHT22;276;48.392;9.950;2023-06-19T06:19:11;22.70;91.90
580;DHT22;276;48.392;9.950;2023-06-19T06:21:36;22.60;91.90
580;DHT22;276;48.392;9.950;2023-06-19T06:24:02;22.60;91.90
580;DHT22;276;48.392;9.950;2023-06-19T06:26:28;22.50;92.10
580;DHT22;276;48.392;9.950;2023-06-19T06:28:54;22.40;92.20
580;DHT22;276;48.392;9.950;2023-06-19T06:31:22;22.50;92.40
580;DHT22;276;48.392;9.950;2023-06-19T06:33:50;22.40;92.40
580;DHT22;276;48.392;9.950;2023-06-19T06:36:18;22.50;92.50
580;DHT22;276;48.392;9.950;2023-06-19T06:38:44;22.50;92.50
580;DHT22;276;48.392;9.950;2023-06-19T06:41:10;22.60;92.50
580;DHT22;276;48.392;9.950;2023-06-19T06:43:39;22.60;92.60
580;DHT22;276;48.392;9.950;2023-06-19T06:46:05;22.60;92.60
580;DHT22;276;48.392;9.950;2023-06-19T06:48:31;22.60;92.60
580;DHT22;276;48.392;9.950;2023-06-19T06:50:59;22.60;92.50
580;DHT22;276;48.392;9.950;2023-06-19T06:53:28;22.60;92.80
580;DHT22;276;48.392;9.950;2023-06-19T06:55:54;22.60;92.90
580;DHT22;276;48.392;9.950;2023-06-19T06:58:23;22.60;92.90
580;DHT22;276;48.392;9.950;2023-06-19T07:00:52;22.70;93.10
580;DHT22;276;48.392;9.950;2023-06-19T07:03:18;22.70;93.10
580;DHT22;276;48.392;9.950;2023-06-19T07:05:49;22.70;93.10
580;DHT22;276;48.392;9.950;2023-06-19T07:08:15;22.80;93.10
580;DHT22;276;48.392;9.950;2023-06-19T07:10:40;22.90;93.00
580;DHT22;276;48.392;9.950;2023-06-19T07:13:11;23.00;92.80
580;DHT22;276;48.392;9.950;2023-06-19T07:15:38;23.00;92.80
580;DHT22;276;48.392;9.950;2023-06-19T07:18:07;23.00;92.30
580;DHT22;276;48.392;9.950;2023-06-19T07:20:34;23.00;92.00
580;DHT22;276;48.392;9.950;2023-06-19T07:23:00;23.00;92.00
580;DHT22;276;48.392;9.950;2023-06-19T07:25:28;23.10;92.00
580;DHT22;276;48.392;9.950;2023-06-19T07:27:54;23.10;92.30
580;DHT22;276;48.392;9.950;2023-06-19T07:30:23;23.10;92.20
580;DHT22;276;48.392;9.950;2023-06-19T07:32:49;23.30;92.20
580;DHT22;276;48.392;9.950;2023-06-19T07:35:17;23.40;92.20
580;DHT22;276;48.392;9.950;2023-06-19T07:37:45;23.40;92.00
580;DHT22;276;48.392;9.950;2023-06-19T07:40:11;23.40;91.80
580;DHT22;276;48.392;9.950;2023-06-19T07:42:40;23.40;91.90
580;DHT22;276;48.392;9.950;2023-06-19T07:45:06;23.50;91.90
580;DHT22;276;48.392;9.950;2023-06-19T07:47:32;23.50;91.90
580;DHT22;276;48.392;9.950;2023-06-19T07:50:00;23.60;91.80
580;DHT22;276;48.392;9.950;2023-06-19T07:52:25;23.50;91.90
580;DHT22;276;48.392;9.950;2023-06-19T07:54:58;23.50;91.90
580;DHT22;276;48.392;9.950;2023-06-19T07:57:26;23.60;91.90
580;DHT22;276;48.392;9.950;2023-06-19T07:59:54;23.60;91.90
580;DHT22;276;48.392;9.950;2023-06-19T08:02:19;23.60;92.00
580;DHT22;276;48.392;9.950;2023-06-19T08:04:46;23.70;91.80
580;DHT22;276;48.392;9.950;2023-06-19T08:07:12;23.70;91.80
580;DHT22;276;48.392;9.950;2023-06-19T08:09:37;23.80;91.80
580;DHT22;276;48.392;9.950;2023-06-19T08:12:03;23.90;91.90
580;DHT22;276;48.392;9.950;2023-06-19T08:14:29;23.90;91.70
580;DHT22;276;48.392;9.950;2023-06-19T08:16:57;23.90;91.80
580;DHT22;276;48.392;9.950;2023-06-19T08:19:22;23.90;91.80
580;DHT22;276;48.392;9.950;2023-06-19T08:21:50;23.90;91.80
580;DHT22;276;48.392;9.950;2023-06-19T08:24:18;24.00;91.90
580;DHT22;276;48.392;9.950;2023-06-19T08:26:44;24.10;92.10
580;DHT22;276;48.392;9.950;2023-06-19T08:29:10;24.20;92.10
580;DHT22;276;48.392;9.950;2023-06-19T08:31:38;24.30;92.20
580;DHT22;276;48.392;9.950;2023-06-19T08:34:04;24.50;92.10
580;DHT22;276;48.392;9.950;2023-06-19T08:36:35;24.60;91.80
580;DHT22;276;48.392;9.950;2023-06-19T08:39:02;24.70;91.50
580;DHT22;276;48.392;9.950;2023-06-19T08:41:28;24.70;90.70
580;DHT22;276;48.392;9.950;2023-06-19T08:43:54;24.70;90.70
580;DHT22;276;48.392;9.950;2023-06-19T08:46:20;24.80;90.60
580;DHT22;276;48.392;9.950;2023-06-19T08:48:48;24.70;90.40
580;DHT22;276;48.392;9.950;2023-06-19T08:51:13;24.60;90.50
580;DHT22;276;48.392;9.950;2023-06-19T08:53:49;24.70;90.80
580;DHT22;276;48.392;9.950;2023-06-19T08:56:17;24.70;90.90
580;DHT22;276;48.392;9.950;2023-06-19T08:58:43;24.80;91.00
580;DHT22;276;48.392;9.950;2023-06-19T09:01:09;24.80;91.00
580;DHT22;276;48.392;9.950;2023-06-19T09:03:34;24.90;91.00
580;DHT22;276;48.392;9.950;2023-06-19T09:06:06;25.00;90.50
580;DHT22;276;48.392;9.950;2023-06-19T09:08:32;25.10;90.20
580;DHT22;276;48.392;9.950;2023-06-19T09:10:58;25.10;89.70
580;DHT22;276;48.392;9.950;2023-06-19T09:13:24;25.10;90.20
580;DHT22;276;48.392;9.950;2023-06-19T09:15:58;25.20;90.30
580;DHT22;276;48.392;9.950;2023-06-19T09:18:25;25.30;90.10
580;DHT22;276;48.392;9.950;2023-06-19T09:20:53;25.50;90.20
580;DHT22;276;48.392;9.950;2023-06-19T09:23:20;25.70;90.50
580;DHT22;276;48.392;9.950;2023-06-19T09:25:53;25.90;88.90
580;DHT22;276;48.392;9.950;2023-06-19T09:28:21;26.00;88.00
580;DHT22;276;48.392;9.950;2023-06-19T09:33:18;26.10;87.00
580;DHT22;276;48.392;9.950;2023-06-19T09:35:44;26.20;86.70
580;DHT22;276;48.392;9.950;2023-06-19T09:38:11;26.30;86.80
580;DHT22;276;48.392;9.950;2023-06-19T09:40:40;26.40;86.40
580;DHT22;276;48.392;9.950;2023-06-19T09:43:07;26.50;86.60
580;DHT22;276;48.392;9.950;2023-06-19T09:45:34;26.60;84.60
580;DHT22;276;48.392;9.950;2023-06-19T09:48:02;26.60;84.60
580;DHT22;276;48.392;9.950;2023-06-19T09:50:29;26.80;84.40
580;DHT22;276;48.392;9.950;2023-06-19T09:52:57;26.90;85.20
580;DHT22;276;48.392;9.950;2023-06-19T09:55:26;26.90;85.50
580;DHT22;276;48.392;9.950;2023-06-19T09:57:55;27.20;86.10
580;DHT22;276;48.392;9.950;2023-06-19T10:00:20;27.40;84.40
580;DHT22;276;48.392;9.950;2023-06-19T10:02:52;27.40;81.50
580;DHT22;276;48.392;9.950;2023-06-19T10:05:30;27.40;82.10
580;DHT22;276;48.392;9.950;2023-06-19T10:07:56;27.40;82.70
580;DHT22;276;48.392;9.950;2023-06-19T10:10:28;27.40;81.30
580;DHT22;276;48.392;9.950;2023-06-19T10:12:58;27.40;81.90
580;DHT22;276;48.392;9.950;2023-06-19T10:15:27;27.60;82.90
580;DHT22;276;48.392;9.950;2023-06-19T10:18:04;27.80;82.50
580;DHT22;276;48.392;9.950;2023-06-19T10:20:34;27.90;81.50
580;DHT22;276;48.392;9.950;2023-06-19T10:25:38;27.90;81.20
580;DHT22;276;48.392;9.950;2023-06-19T10:28:15;27.90;81.60
580;DHT22;276;48.392;9.950;2023-06-19T10:30:43;27.90;81.20
580;DHT22;276;48.392;9.950;2023-06-19T10:33:09;27.90;81.10
580;DHT22;276;48.392;9.950;2023-06-19T10:35:40;27.90;79.70
580;DHT22;276;48.392;9.950;2023-06-19T10:38:07;27.90;79.50
580;DHT22;276;48.392;9.950;2023-06-19T10:40:37;27.80;79.60
580;DHT22;276;48.392;9.950;2023-06-19T10:43:03;27.90;79.60
580;DHT22;276;48.392;9.950;2023-06-19T10:45:31;27.90;78.50
580;DHT22;276;48.392;9.950;2023-06-19T10:48:03;27.90;78.80
580;DHT22;276;48.392;9.950;2023-06-19T10:50:37;28.00;79.60
580;DHT22;276;48.392;9.950;2023-06-19T10:53:04;28.20;80.30
580;DHT22;276;48.392;9.950;2023-06-19T10:55:29;28.30;79.00
580;DHT22;276;48.392;9.950;2023-06-19T10:57:58;28.20;79.50
580;DHT22;276;48.392;9.950;2023-06-19T11:00:29;28.20;79.70
580;DHT22;276;48.392;9.950;2023-06-19T11:02:56;28.20;79.10
580;DHT22;276;48.392;9.950;2023-06-19T11:05:22;28.10;78.80
580;DHT22;276;48.392;9.950;2023-06-19T11:07:56;28.10;78.60
580;DHT22;276;48.392;9.950;2023-06-19T11:10:28;28.10;77.40
580;DHT22;276;48.392;9.950;2023-06-19T11:13:00;28.20;77.60
580;DHT22;276;48.392;9.950;2023-06-19T11:15:32;28.40;76.90
580;DHT22;276;48.392;9.950;2023-06-19T11:17:59;28.50;76.70
580;DHT22;276;48.392;9.950;2023-06-19T11:20:28;28.70;76.60
580;DHT22;276;48.392;9.950;2023-06-19T11:23:00;28.80;76.10
580;DHT22;276;48.392;9.950;2023-06-19T11:25:39;28.90;75.40
580;DHT22;276;48.392;9.950;2023-06-19T11:28:17;29.10;75.90
580;DHT22;276;48.392;9.950;2023-06-19T11:30:49;29.30;76.40
580;DHT22;276;48.392;9.950;2023-06-19T11:33:21;29.50;75.50
580;DHT22;276;48.392;9.950;2023-06-19T11:35:53;29.60;75.20
580;DHT22;276;48.392;9.950;2023-06-19T11:38:23;29.80;74.50
580;DHT22;276;48.392;9.950;2023-06-19T11:40:50;29.80;73.00
580;DHT22;276;48.392;9.950;2023-06-19T11:43:29;29.70;72.10
580;DHT22;276;48.392;9.950;2023-06-19T11:46:05;29.70;71.60
580;DHT22;276;48.392;9.950;2023-06-19T11:48:31;29.60;71.20
580;DHT22;276;48.392;9.950;2023-06-19T11:50:57;29.60;71.80
580;DHT22;276;48.392;9.950;2023-06-19T11:53:24;29.60;72.10
580;DHT22;276;48.392;9.950;2023-06-19T11:55:55;29.70;73.10
580;DHT22;276;48.392;9.950;2023-06-19T11:58:21;29.80;72.00
580;DHT22;276;48.392;9.950;2023-06-19T12:00:47;29.70;71.70
580;DHT22;276;48.392;9.950;2023-06-19T12:03:15;29.70;71.70
580;DHT22;276;48.392;9.950;2023-06-19T12:05:41;29.80;72.40
580;DHT22;276;48.392;9.950;2023-06-19T12:08:06;29.80;69.20
580;DHT22;276;48.392;9.950;2023-06-19T12:10:33;29.80;70.50
580;DHT22;276;48.392;9.950;2023-06-19T12:12:59;29.80;69.70
580;DHT22;276;48.392;9.950;2023-06-19T12:15:25;29.90;70.40
580;DHT22;276;48.392;9.950;2023-06-19T12:17:51;29.90;70.40
580;DHT22;276;48.392;9.950;2023-06-19T12:20:17;30.00;69.50
580;DHT22;276;48.392;9.950;2023-06-19T12:22:45;30.00;69.80
580;DHT22;276;48.392;9.950;2023-06-19T12:25:10;30.10;69.80
580;DHT22;276;48.392;9.950;2023-06-19T12:27:38;30.00;69.80
580;DHT22;276;48.392;9.950;2023-06-19T12:30:04;30.10;70.40
580;DHT22;276;48.392;9.950;2023-06-19T12:32:32;30.20;69.30
580;DHT22;276;48.392;9.950;2023-06-19T12:34:58;30.10;67.60
580;DHT22;276;48.392;9.950;2023-06-19T12:37:23;30.00;67.80
580;DHT22;276;48.392;9.950;2023-06-19T12:39:52;30.00;67.70
580;DHT22;276;48.392;9.950;2023-06-19T12:42:18;29.90;67.60
580;DHT22;276;48.392;9.950;2023-06-19T12:44:46;29.80;67.90
580;DHT22;276;48.392;9.950;2023-06-19T12:47:13;29.80;68.70
580;DHT22;276;48.392;9.950;2023-06-19T12:49:40;29.80;69.20
580;DHT22;276;48.392;9.950;2023-06-19T12:52:06;29.80;69.90
580;DHT22;276;48.392;9.950;2023-06-19T12:54:34;29.90;70.10
580;DHT22;276;48.392;9.950;2023-06-19T12:57:01;30.00;69.10
580;DHT22;276;48.392;9.950;2023-06-19T12:59:26;30.00;68.00
580;DHT22;276;48.392;9.950;2023-06-19T13:01:52;30.00;68.50
580;DHT22;276;48.392;9.950;2023-06-19T13:04:20;30.10;69.00
580;DHT22;276;48.392;9.950;2023-06-19T13:06:45;30.10;68.40
580;DHT22;276;48.392;9.950;2023-06-19T13:09:13;30.00;65.70
580;DHT22;276;48.392;9.950;2023-06-19T13:11:41;29.80;65.90
580;DHT22;276;48.392;9.950;2023-06-19T13:14:09;29.80;66.90
580;DHT22;276;48.392;9.950;2023-06-19T13:16:35;29.80;68.80
580;DHT22;276;48.392;9.950;2023-06-19T13:19:01;29.90;69.20
580;DHT22;276;48.392;9.950;2023-06-19T13:21:27;29.90;69.60
580;DHT22;276;48.392;9.950;2023-06-19T13:23:55;30.00;69.70
580;DHT22;276;48.392;9.950;2023-06-19T13:26:23;30.10;70.10
580;DHT22;276;48.392;9.950;2023-06-19T13:28:49;30.20;70.20
580;DHT22;276;48.392;9.950;2023-06-19T13:31:15;30.20;68.30
580;DHT22;276;48.392;9.950;2023-06-19T13:33:40;30.20;68.00
580;DHT22;276;48.392;9.950;2023-06-19T13:36:06;30.30;68.70
580;DHT22;276;48.392;9.950;2023-06-19T13:38:34;30.30;68.70
580;DHT22;276;48.392;9.950;2023-06-19T13:40:59;30.30;68.70
580;DHT22;276;48.392;9.950;2023-06-19T13:43:25;30.40;68.20
580;DHT22;276;48.392;9.950;2023-06-19T13:45:51;30.40;68.00
580;DHT22;276;48.392;9.950;2023-06-19T13:48:16;30.40;68.60
580;DHT22;276;48.392;9.950;2023-06-19T13:50:42;30.50;67.90
580;DHT22;276;48.392;9.950;2023-06-19T13:53:10;30.50;67.90
580;DHT22;276;48.392;9.950;2023-06-19T13:55:35;30.40;68.30
580;DHT22;276;48.392;9.950;2023-06-19T13:58:01;30.40;68.70
580;DHT22;276;48.392;9.950;2023-06-19T14:00:29;30.50;69.20
580;DHT22;276;48.392;9.950;2023-06-19T14:02:54;30.50;69.10
580;DHT22;276;48.392;9.950;2023-06-19T14:05:20;30.50;68.30
580;DHT22;276;48.392;9.950;2023-06-19T14:07:46;30.50;67.60
580;DHT22;276;48.392;9.950;2023-06-19T14:10:11;30.50;67.40
580;DHT22;276;48.392;9.950;2023-06-19T14:12:37;30.50;68.00
580;DHT22;276;48.392;9.950;2023-06-19T14:15:05;30.40;66.40
580;DHT22;276;48.392;9.950;2023-06-19T14:17:32;30.40;66.70
580;DHT22;276;48.392;9.950;2023-06-19T14:19:58;30.40;67.60
580;DHT22;276;48.392;9.950;2023-06-19T14:22:23;30.40;67.10
580;DHT22;276;48.392;9.950;2023-06-19T14:24:49;30.40;66.10
580;DHT22;276;48.392;9.950;2023-06-19T14:27:15;30.30;65.20
580;DHT22;276;48.392;9.950;2023-06-19T14:29:42;30.20;65.70
580;DHT22;276;48.392;9.950;2023-06-19T14:32:10;30.20;66.60
580;DHT22;276;48.392;9.950;2023-06-19T14:34:36;30.20;67.30
580;DHT22;276;48.392;9.950;2023-06-19T14:37:01;30.20;67.60
580;DHT22;276;48.392;9.950;2023-06-19T14:39:29;30.20;67.60
580;DHT22;276;48.392;9.950;2023-06-19T14:42:00;30.20;67.60
580;DHT22;276;48.392;9.950;2023-06-19T14:44:25;30.20;67.50
580;DHT22;276;48.392;9.950;2023-06-19T14:46:53;30.20;67.40
580;DHT22;276;48.392;9.950;2023-06-19T14:49:21;30.20;67.30
580;DHT22;276;48.392;9.950;2023-06-19T14:51:46;30.10;66.70
580;DHT22;276;48.392;9.950;2023-06-19T14:54:14;30.10;66.70
580;DHT22;276;48.392;9.950;2023-06-19T14:56:46;30.10;66.90
580;DHT22;276;48.392;9.950;2023-06-19T14:59:14;30.10;67.30
580;DHT22;276;48.392;9.950;2023-06-19T15:01:43;30.10;67.70
580;DHT22;276;48.392;9.950;2023-06-19T15:04:11;30.10;67.30
580;DHT22;276;48.392;9.950;2023-06-19T15:06:37;30.10;65.70
580;DHT22;276;48.392;9.950;2023-06-19T15:09:03;30.00;65.80
580;DHT22;276;48.392;9.950;2023-06-19T15:11:28;30.00;66.40
580;DHT22;276;48.392;9.950;2023-06-19T15:13:54;30.00;65.80
580;DHT22;276;48.392;9.950;2023-06-19T15:16:19;30.00;65.90
580;DHT22;276;48.392;9.950;2023-06-19T15:18:47;30.00;66.00
580;DHT22;276;48.392;9.950;2023-06-19T15:21:16;30.00;66.30
580;DHT22;276;48.392;9.950;2023-06-19T15:23:44;30.00;67.10
580;DHT22;276;48.392;9.950;2023-06-19T15:26:12;29.90;66.40
580;DHT22;276;48.392;9.950;2023-06-19T15:28:37;29.90;66.40
580;DHT22;276;48.392;9.950;2023-06-19T15:31:05;29.90;65.70
580;DHT22;276;48.392;9.950;2023-06-19T15:33:31;29.80;65.10
580;DHT22;276;48.392;9.950;2023-06-19T15:35:59;29.60;64.60
580;DHT22;276;48.392;9.950;2023-06-19T15:38:27;29.60;65.10
580;DHT22;276;48.392;9.950;2023-06-19T15:40:55;29.60;65.00
580;DHT22;276;48.392;9.950;2023-06-19T15:43:23;29.60;65.40
580;DHT22;276;48.392;9.950;2023-06-19T15:45:54;29.60;66.00
580;DHT22;276;48.392;9.950;2023-06-19T15:48:20;29.60;65.90
580;DHT22;276;48.392;9.950;2023-06-19T15:50:48;29.60;65.30
580;DHT22;276;48.392;9.950;2023-06-19T15:53:16;29.60;65.40
580;DHT22;276;48.392;9.950;2023-06-19T15:55:42;29.60;65.60
580;DHT22;276;48.392;9.950;2023-06-19T15:58:10;29.50;65.50
580;DHT22;276;48.392;9.950;2023-06-19T16:00:39;29.40;66.00
580;DHT22;276;48.392;9.950;2023-06-19T16:03:05;29.40;66.40
580;DHT22;276;48.392;9.950;2023-06-19T16:05:35;29.30;66.00
580;DHT22;276;48.392;9.950;2023-06-19T16:08:01;29.20;65.30
580;DHT22;276;48.392;9.950;2023-06-19T16:10:29;29.20;65.60
580;DHT22;276;48.392;9.950;2023-06-19T16:12:55;29.10;65.80
580;DHT22;276;48.392;9.950;2023-06-19T16:15:23;29.10;66.70
580;DHT22;276;48.392;9.950;2023-06-19T16:17:49;29.10;66.40
580;DHT22;276;48.392;9.950;2023-06-19T16:20:16;29.10;66.90
580;DHT22;276;48.392;9.950;2023-06-19T16:22:42;29.10;67.40
580;DHT22;276;48.392;9.950;2023-06-19T16:25:08;29.10;67.20
580;DHT22;276;48.392;9.950;2023-06-19T16:27:36;29.10;67.00
580;DHT22;276;48.392;9.950;2023-06-19T16:30:01;29.10;67.70
580;DHT22;276;48.392;9.950;2023-06-19T16:32:28;29.10;68.10
580;DHT22;276;48.392;9.950;2023-06-19T16:34:58;29.10;68.80
580;DHT22;276;48.392;9.950;2023-06-19T16:37:26;29.10;69.20
580;DHT22;276;48.392;9.950;2023-06-19T16:39:51;29.10;69.20